Aérodrome :
LOGIN :

S'inscrire | Disclaimer

   EN    FR    IT 

 










Légende :    VFR   VFR Marginal   IFR   IFR Intensif   IFR Très Intensif
Visi : 
Plafond : 
>= 8 km
>= 3000ft
5 à 8 km
1000 à 3000 ft
1500m à 5 km
500 à 1000 ft
800 à 1500m
200 à 500 ft
< 800m
< 200 ft
Symboles :   Orages  Brouillard  Fortes neiges  Fortes précipitations  Vent > 20 kt
SIGMETs :   Divers  Orages  Givrage  Turbulence  Onde Orograph.  Cendres Volcan.






- Altitude de l'aérodrome : 359 ft
- Code IATA : DEB


LHDC - Debrecen

DERNIER METAR :
  • 200615Z AUTO 02005KT 4400 BR OVC032 M01/M01 Q1041 NOSIG

METARs EXPIRÉS :
  • 200556Z AUTO 36004KT 330V030 5000 BR OVC032 M01/M01 Q1040
  • 200545Z AUTO 36004KT 330V030 6000 OVC032 M01/M01 Q1040 NOSIG
  • 200515Z AUTO 01004KT 330V050 6000 SCT016 OVC030 M01/M01 Q1040 NOSIG
  • 200445Z AUTO 01004KT 330V050 6000 OVC028 M01/M01 Q1040 NOSIG
  • 200415Z AUTO 01003KT 340V050 6000 FEW019 OVC027 M01/M01 Q1039 NOSIG
  • 200345Z AUTO 01003KT 330V030 6000 BKN019 M01/M01 Q1040 NOSIG

TAF TAF LHDC
Valide du 20 à 06h jusqu'au 20 à 15h UTC


200515Z 2006/2015 01005KT 7000 SCT015 OVC027
TEMPO 2006/2008 3000 BR BKN015



MET'MAP, la Météo Aéronautique d'un coup d'oeil ! - Copyright ORBIFLY Décembre 2007 - Disclaimer

ORBIFLY MET'MAP TEAM :

Programmation & Développement : Alexandra Zaïnal
Sur une idée originale de : Baudouin d'Aumeries
Assistance à la programmation : Marc-Olivier Méhu
Soutien technique & logistique : Manuel Goepfert

Contact : metmap@orbifly.com




SOURCES & CREDITS :

   NOAA